sensor_id;sensor_type;location;lat;lon;timestamp;temperature;humidity
18884;DHT22;9574;47.282;9.640;2022-07-24T00:02:23;22.80;99.90
18884;DHT22;9574;47.282;9.640;2022-07-24T00:04:50;22.70;99.90
18884;DHT22;9574;47.282;9.640;2022-07-24T00:07:21;22.70;99.90
18884;DHT22;9574;47.282;9.640;2022-07-24T00:09:48;23.00;99.90
18884;DHT22;9574;47.282;9.640;2022-07-24T00:12:15;23.30;99.90
18884;DHT22;9574;47.282;9.640;2022-07-24T00:14:42;23.40;99.90
18884;DHT22;9574;47.282;9.640;2022-07-24T00:17:11;23.40;99.90
18884;DHT22;9574;47.282;9.640;2022-07-24T00:19:38;23.60;99.90
18884;DHT22;9574;47.282;9.640;2022-07-24T00:22:05;23.70;99.90
18884;DHT22;9574;47.282;9.640;2022-07-24T00:24:32;23.50;99.90
18884;DHT22;9574;47.282;9.640;2022-07-24T00:26:59;23.10;99.90
18884;DHT22;9574;47.282;9.640;2022-07-24T00:29:26;22.80;99.90
18884;DHT22;9574;47.282;9.640;2022-07-24T00:31:53;22.80;99.90
18884;DHT22;9574;47.282;9.640;2022-07-24T00:34:22;22.90;99.90
18884;DHT22;9574;47.282;9.640;2022-07-24T00:36:49;22.80;99.90
18884;DHT22;9574;47.282;9.640;2022-07-24T00:39:16;22.60;99.90
18884;DHT22;9574;47.282;9.640;2022-07-24T00:41:43;22.50;99.90
18884;DHT22;9574;47.282;9.640;2022-07-24T00:44:12;22.40;99.90
18884;DHT22;9574;47.282;9.640;2022-07-24T00:46:41;22.20;99.90
18884;DHT22;9574;47.282;9.640;2022-07-24T00:49:10;22.10;99.90
18884;DHT22;9574;47.282;9.640;2022-07-24T00:51:41;22.00;99.90
18884;DHT22;9574;47.282;9.640;2022-07-24T00:54:10;21.90;99.90
18884;DHT22;9574;47.282;9.640;2022-07-24T00:56:38;21.90;99.90
18884;DHT22;9574;47.282;9.640;2022-07-24T00:59:05;22.00;99.90
18884;DHT22;9574;47.282;9.640;2022-07-24T01:01:33;22.10;99.90
18884;DHT22;9574;47.282;9.640;2022-07-24T01:04:00;22.20;99.90
18884;DHT22;9574;47.282;9.640;2022-07-24T01:06:27;22.10;99.90
18884;DHT22;9574;47.282;9.640;2022-07-24T01:08:55;22.10;99.90
18884;DHT22;9574;47.282;9.640;2022-07-24T01:11:22;22.00;99.90
18884;DHT22;9574;47.282;9.640;2022-07-24T01:13:50;21.90;99.90
18884;DHT22;9574;47.282;9.640;2022-07-24T01:16:18;21.90;99.90
18884;DHT22;9574;47.282;9.640;2022-07-24T01:18:45;22.00;99.90
18884;DHT22;9574;47.282;9.640;2022-07-24T01:21:13;22.20;99.90
18884;DHT22;9574;47.282;9.640;2022-07-24T01:23:40;22.60;99.90
18884;DHT22;9574;47.282;9.640;2022-07-24T01:26:07;22.80;99.90
18884;DHT22;9574;47.282;9.640;2022-07-24T01:28:35;22.90;99.90
18884;DHT22;9574;47.282;9.640;2022-07-24T01:31:02;22.90;99.90
18884;DHT22;9574;47.282;9.640;2022-07-24T01:33:29;23.00;99.90
18884;DHT22;9574;47.282;9.640;2022-07-24T01:35:56;22.90;99.90
18884;DHT22;9574;47.282;9.640;2022-07-24T01:38:24;22.60;99.90
18884;DHT22;9574;47.282;9.640;2022-07-24T01:40:52;22.30;99.90
18884;DHT22;9574;47.282;9.640;2022-07-24T01:43:18;22.00;99.90
18884;DHT22;9574;47.282;9.640;2022-07-24T01:45:45;21.80;99.90
18884;DHT22;9574;47.282;9.640;2022-07-24T01:48:12;21.70;99.90
18884;DHT22;9574;47.282;9.640;2022-07-24T01:50:39;21.60;99.90
18884;DHT22;9574;47.282;9.640;2022-07-24T01:53:06;21.60;99.90
18884;DHT22;9574;47.282;9.640;2022-07-24T01:55:35;21.50;99.90
18884;DHT22;9574;47.282;9.640;2022-07-24T01:58:02;21.60;99.90
18884;DHT22;9574;47.282;9.640;2022-07-24T02:00:28;21.60;99.90
18884;DHT22;9574;47.282;9.640;2022-07-24T02:02:55;21.60;99.90
18884;DHT22;9574;47.282;9.640;2022-07-24T02:05:22;21.60;99.90
18884;DHT22;9574;47.282;9.640;2022-07-24T02:07:55;21.60;99.90
18884;DHT22;9574;47.282;9.640;2022-07-24T02:10:23;21.60;99.90
18884;DHT22;9574;47.282;9.640;2022-07-24T02:12:52;21.60;99.90
18884;DHT22;9574;47.282;9.640;2022-07-24T02:15:19;21.60;99.90
18884;DHT22;9574;47.282;9.640;2022-07-24T02:17:47;21.60;99.90
18884;DHT22;9574;47.282;9.640;2022-07-24T02:20:15;21.60;99.90
18884;DHT22;9574;47.282;9.640;2022-07-24T02:22:43;21.60;99.90
18884;DHT22;9574;47.282;9.640;2022-07-24T02:25:11;21.60;99.90
18884;DHT22;9574;47.282;9.640;2022-07-24T02:27:39;21.70;99.90
18884;DHT22;9574;47.282;9.640;2022-07-24T02:30:10;21.90;99.90
18884;DHT22;9574;47.282;9.640;2022-07-24T02:32:37;21.90;99.90
18884;DHT22;9574;47.282;9.640;2022-07-24T02:35:06;22.10;99.90
18884;DHT22;9574;47.282;9.640;2022-07-24T02:37:35;22.30;99.90
18884;DHT22;9574;47.282;9.640;2022-07-24T02:40:03;22.50;99.90
18884;DHT22;9574;47.282;9.640;2022-07-24T02:42:31;22.30;99.90
18884;DHT22;9574;47.282;9.640;2022-07-24T02:44:58;22.20;99.90
18884;DHT22;9574;47.282;9.640;2022-07-24T02:47:26;22.00;99.90
18884;DHT22;9574;47.282;9.640;2022-07-24T02:49:53;21.90;99.90
18884;DHT22;9574;47.282;9.640;2022-07-24T02:52:20;21.70;99.90
18884;DHT22;9574;47.282;9.640;2022-07-24T02:54:47;21.60;99.90
18884;DHT22;9574;47.282;9.640;2022-07-24T02:57:14;21.60;99.90
18884;DHT22;9574;47.282;9.640;2022-07-24T02:59:41;21.50;99.90
18884;DHT22;9574;47.282;9.640;2022-07-24T03:02:08;21.40;99.90
18884;DHT22;9574;47.282;9.640;2022-07-24T03:04:37;21.40;99.90
18884;DHT22;9574;47.282;9.640;2022-07-24T03:07:04;21.40;99.90
18884;DHT22;9574;47.282;9.640;2022-07-24T03:09:31;21.40;99.90
18884;DHT22;9574;47.282;9.640;2022-07-24T03:11:58;21.40;99.90
18884;DHT22;9574;47.282;9.640;2022-07-24T03:14:25;21.50;99.90
18884;DHT22;9574;47.282;9.640;2022-07-24T03:16:51;21.40;99.90
18884;DHT22;9574;47.282;9.640;2022-07-24T03:19:18;21.30;99.90
18884;DHT22;9574;47.282;9.640;2022-07-24T03:21:47;21.20;99.90
18884;DHT22;9574;47.282;9.640;2022-07-24T03:24:14;21.20;99.90
18884;DHT22;9574;47.282;9.640;2022-07-24T03:26:41;21.30;99.90
18884;DHT22;9574;47.282;9.640;2022-07-24T03:29:08;21.20;99.90
18884;DHT22;9574;47.282;9.640;2022-07-24T03:31:35;21.10;99.90
18884;DHT22;9574;47.282;9.640;2022-07-24T03:34:02;21.00;99.90
18884;DHT22;9574;47.282;9.640;2022-07-24T03:36:29;20.90;99.90
18884;DHT22;9574;47.282;9.640;2022-07-24T03:38:57;20.80;99.90
18884;DHT22;9574;47.282;9.640;2022-07-24T03:41:24;20.80;99.90
18884;DHT22;9574;47.282;9.640;2022-07-24T03:43:51;20.80;99.90
18884;DHT22;9574;47.282;9.640;2022-07-24T03:46:18;20.70;99.90
18884;DHT22;9574;47.282;9.640;2022-07-24T03:48:45;20.80;99.90
18884;DHT22;9574;47.282;9.640;2022-07-24T03:51:12;20.80;99.90
18884;DHT22;9574;47.282;9.640;2022-07-24T03:53:39;20.70;99.90
18884;DHT22;9574;47.282;9.640;2022-07-24T03:56:09;20.70;99.90
18884;DHT22;9574;47.282;9.640;2022-07-24T03:58:36;20.70;99.90
18884;DHT22;9574;47.282;9.640;2022-07-24T04:01:03;20.70;99.90
18884;DHT22;9574;47.282;9.640;2022-07-24T04:03:30;20.60;99.90
18884;DHT22;9574;47.282;9.640;2022-07-24T04:05:57;20.60;99.90
18884;DHT22;9574;47.282;9.640;2022-07-24T04:08:24;20.60;99.90
18884;DHT22;9574;47.282;9.640;2022-07-24T04:10:51;20.60;99.90
18884;DHT22;9574;47.282;9.640;2022-07-24T04:13:24;20.70;99.90
18884;DHT22;9574;47.282;9.640;2022-07-24T04:15:51;20.70;99.90
18884;DHT22;9574;47.282;9.640;2022-07-24T04:18:18;20.60;99.90
18884;DHT22;9574;47.282;9.640;2022-07-24T04:20:45;20.60;99.90
18884;DHT22;9574;47.282;9.640;2022-07-24T04:23:12;20.60;99.90
18884;DHT22;9574;47.282;9.640;2022-07-24T04:25:39;20.60;99.90
18884;DHT22;9574;47.282;9.640;2022-07-24T04:28:06;20.60;99.90
18884;DHT22;9574;47.282;9.640;2022-07-24T04:30:35;20.60;99.90
18884;DHT22;9574;47.282;9.640;2022-07-24T04:33:02;20.60;99.90
18884;DHT22;9574;47.282;9.640;2022-07-24T04:35:29;20.80;99.90
18884;DHT22;9574;47.282;9.640;2022-07-24T04:37:56;21.00;99.90
18884;DHT22;9574;47.282;9.640;2022-07-24T04:40:23;21.30;99.90
18884;DHT22;9574;47.282;9.640;2022-07-24T04:42:50;21.50;99.90
18884;DHT22;9574;47.282;9.640;2022-07-24T04:45:17;21.70;99.90
18884;DHT22;9574;47.282;9.640;2022-07-24T04:47:46;21.70;99.90
18884;DHT22;9574;47.282;9.640;2022-07-24T04:50:13;22.00;99.90
18884;DHT22;9574;47.282;9.640;2022-07-24T04:52:39;22.10;99.90
18884;DHT22;9574;47.282;9.640;2022-07-24T04:55:08;22.00;99.90
18884;DHT22;9574;47.282;9.640;2022-07-24T04:57:35;21.70;99.90
18884;DHT22;9574;47.282;9.640;2022-07-24T05:00:04;21.50;99.90
18884;DHT22;9574;47.282;9.640;2022-07-24T05:02:32;21.40;99.90
18884;DHT22;9574;47.282;9.640;2022-07-24T05:05:00;21.30;99.90
18884;DHT22;9574;47.282;9.640;2022-07-24T05:07:27;21.20;99.90
18884;DHT22;9574;47.282;9.640;2022-07-24T05:09:54;21.20;99.90
18884;DHT22;9574;47.282;9.640;2022-07-24T05:12:21;21.40;99.90
18884;DHT22;9574;47.282;9.640;2022-07-24T05:14:48;21.50;99.90
18884;DHT22;9574;47.282;9.640;2022-07-24T05:17:15;21.50;99.90
18884;DHT22;9574;47.282;9.640;2022-07-24T05:19:42;21.50;99.90
18884;DHT22;9574;47.282;9.640;2022-07-24T05:22:10;21.50;99.90
18884;DHT22;9574;47.282;9.640;2022-07-24T05:24:37;21.70;99.90
18884;DHT22;9574;47.282;9.640;2022-07-24T05:27:04;21.90;99.90
18884;DHT22;9574;47.282;9.640;2022-07-24T05:29:31;22.10;99.90
18884;DHT22;9574;47.282;9.640;2022-07-24T05:31:58;22.00;99.90
18884;DHT22;9574;47.282;9.640;2022-07-24T05:34:25;21.80;99.90
18884;DHT22;9574;47.282;9.640;2022-07-24T05:36:52;21.80;99.90
18884;DHT22;9574;47.282;9.640;2022-07-24T05:39:20;21.60;99.90
18884;DHT22;9574;47.282;9.640;2022-07-24T05:41:47;21.80;99.90
18884;DHT22;9574;47.282;9.640;2022-07-24T05:44:14;21.90;99.90
18884;DHT22;9574;47.282;9.640;2022-07-24T05:46:41;21.80;99.90
18884;DHT22;9574;47.282;9.640;2022-07-24T05:49:08;22.00;99.90
18884;DHT22;9574;47.282;9.640;2022-07-24T05:51:35;22.10;99.90
18884;DHT22;9574;47.282;9.640;2022-07-24T05:54:02;22.20;99.90
18884;DHT22;9574;47.282;9.640;2022-07-24T05:56:31;22.20;99.90
18884;DHT22;9574;47.282;9.640;2022-07-24T05:58:58;22.10;99.90
18884;DHT22;9574;47.282;9.640;2022-07-24T06:01:25;22.00;99.90
18884;DHT22;9574;47.282;9.640;2022-07-24T06:03:52;21.90;99.90
18884;DHT22;9574;47.282;9.640;2022-07-24T06:06:19;21.90;99.90
18884;DHT22;9574;47.282;9.640;2022-07-24T06:08:46;22.00;99.90
18884;DHT22;9574;47.282;9.640;2022-07-24T06:11:12;22.10;99.90
18884;DHT22;9574;47.282;9.640;2022-07-24T06:13:41;22.10;99.90
18884;DHT22;9574;47.282;9.640;2022-07-24T06:16:08;22.20;99.90
18884;DHT22;9574;47.282;9.640;2022-07-24T06:18:35;22.20;99.90
18884;DHT22;9574;47.282;9.640;2022-07-24T06:21:02;22.30;99.90
18884;DHT22;9574;47.282;9.640;2022-07-24T06:23:29;22.40;99.90
18884;DHT22;9574;47.282;9.640;2022-07-24T06:25:56;22.60;99.90
18884;DHT22;9574;47.282;9.640;2022-07-24T06:28:23;22.70;99.90
18884;DHT22;9574;47.282;9.640;2022-07-24T06:30:51;22.80;99.90
18884;DHT22;9574;47.282;9.640;2022-07-24T06:33:18;22.90;99.90
18884;DHT22;9574;47.282;9.640;2022-07-24T06:35:45;23.00;99.90
18884;DHT22;9574;47.282;9.640;2022-07-24T06:38:12;23.30;99.90
18884;DHT22;9574;47.282;9.640;2022-07-24T06:40:41;23.40;99.90
18884;DHT22;9574;47.282;9.640;2022-07-24T06:43:09;23.50;99.90
18884;DHT22;9574;47.282;9.640;2022-07-24T06:45:36;23.50;99.90
18884;DHT22;9574;47.282;9.640;2022-07-24T06:48:05;23.60;99.90
18884;DHT22;9574;47.282;9.640;2022-07-24T06:50:33;23.70;99.90
18884;DHT22;9574;47.282;9.640;2022-07-24T06:53:00;23.80;99.90
18884;DHT22;9574;47.282;9.640;2022-07-24T06:55:27;23.80;99.90
18884;DHT22;9574;47.282;9.640;2022-07-24T06:57:54;23.70;99.90
18884;DHT22;9574;47.282;9.640;2022-07-24T07:00:21;23.70;99.90
18884;DHT22;9574;47.282;9.640;2022-07-24T07:02:48;23.80;99.90
18884;DHT22;9574;47.282;9.640;2022-07-24T07:05:17;23.90;99.90
18884;DHT22;9574;47.282;9.640;2022-07-24T07:07:44;24.00;99.90
18884;DHT22;9574;47.282;9.640;2022-07-24T07:10:11;24.10;99.90
18884;DHT22;9574;47.282;9.640;2022-07-24T07:12:38;24.20;99.90
18884;DHT22;9574;47.282;9.640;2022-07-24T07:15:05;24.30;99.90
18884;DHT22;9574;47.282;9.640;2022-07-24T07:17:33;24.40;99.90
18884;DHT22;9574;47.282;9.640;2022-07-24T07:19:59;24.40;99.90
18884;DHT22;9574;47.282;9.640;2022-07-24T07:22:28;24.30;99.90
18884;DHT22;9574;47.282;9.640;2022-07-24T07:24:55;24.20;99.90
18884;DHT22;9574;47.282;9.640;2022-07-24T07:27:22;24.20;99.90
18884;DHT22;9574;47.282;9.640;2022-07-24T07:29:49;24.30;99.90
18884;DHT22;9574;47.282;9.640;2022-07-24T07:32:15;24.40;99.90
18884;DHT22;9574;47.282;9.640;2022-07-24T07:34:43;24.60;99.90
18884;DHT22;9574;47.282;9.640;2022-07-24T07:37:10;24.40;99.90
18884;DHT22;9574;47.282;9.640;2022-07-24T07:39:38;24.40;99.90
18884;DHT22;9574;47.282;9.640;2022-07-24T07:42:05;24.50;99.90
18884;DHT22;9574;47.282;9.640;2022-07-24T07:44:32;24.60;99.90
18884;DHT22;9574;47.282;9.640;2022-07-24T07:46:59;24.70;99.90
18884;DHT22;9574;47.282;9.640;2022-07-24T07:49:26;24.90;99.90
18884;DHT22;9574;47.282;9.640;2022-07-24T07:51:53;25.00;99.90
18884;DHT22;9574;47.282;9.640;2022-07-24T07:54:20;24.90;99.90
18884;DHT22;9574;47.282;9.640;2022-07-24T07:56:48;24.90;99.90
18884;DHT22;9574;47.282;9.640;2022-07-24T07:59:15;25.00;99.90
18884;DHT22;9574;47.282;9.640;2022-07-24T08:01:42;25.10;99.90
18884;DHT22;9574;47.282;9.640;2022-07-24T08:04:09;25.10;99.90
18884;DHT22;9574;47.282;9.640;2022-07-24T08:06:36;25.20;99.90
18884;DHT22;9574;47.282;9.640;2022-07-24T08:09:04;25.30;99.90
18884;DHT22;9574;47.282;9.640;2022-07-24T08:11:31;25.30;99.90
18884;DHT22;9574;47.282;9.640;2022-07-24T08:13:59;25.50;99.90
18884;DHT22;9574;47.282;9.640;2022-07-24T08:16:27;25.60;99.90
18884;DHT22;9574;47.282;9.640;2022-07-24T08:18:54;25.60;99.90
18884;DHT22;9574;47.282;9.640;2022-07-24T08:21:21;25.70;99.90
18884;DHT22;9574;47.282;9.640;2022-07-24T08:23:48;25.80;99.90
18884;DHT22;9574;47.282;9.640;2022-07-24T08:26:16;25.90;99.90
18884;DHT22;9574;47.282;9.640;2022-07-24T08:28:43;25.90;99.90
18884;DHT22;9574;47.282;9.640;2022-07-24T08:31:11;25.90;99.90
18884;DHT22;9574;47.282;9.640;2022-07-24T08:33:38;26.00;99.90
18884;DHT22;9574;47.282;9.640;2022-07-24T08:36:06;26.10;99.90
18884;DHT22;9574;47.282;9.640;2022-07-24T08:38:33;26.20;99.90
18884;DHT22;9574;47.282;9.640;2022-07-24T08:41:00;26.20;99.90
18884;DHT22;9574;47.282;9.640;2022-07-24T08:43:28;26.20;99.90
18884;DHT22;9574;47.282;9.640;2022-07-24T08:45:55;26.30;99.90
18884;DHT22;9574;47.282;9.640;2022-07-24T08:48:24;26.40;99.90
18884;DHT22;9574;47.282;9.640;2022-07-24T08:50:53;26.40;99.90
18884;DHT22;9574;47.282;9.640;2022-07-24T08:53:22;26.50;99.90
18884;DHT22;9574;47.282;9.640;2022-07-24T08:55:49;26.80;99.90
18884;DHT22;9574;47.282;9.640;2022-07-24T08:58:16;27.00;99.90
18884;DHT22;9574;47.282;9.640;2022-07-24T09:00:43;27.10;99.90
18884;DHT22;9574;47.282;9.640;2022-07-24T09:03:10;27.20;99.90
18884;DHT22;9574;47.282;9.640;2022-07-24T09:05:55;27.30;99.90
18884;DHT22;9574;47.282;9.640;2022-07-24T09:08:22;27.30;99.90
18884;DHT22;9574;47.282;9.640;2022-07-24T09:11:00;27.40;99.90
18884;DHT22;9574;47.282;9.640;2022-07-24T09:13:29;27.60;99.90
18884;DHT22;9574;47.282;9.640;2022-07-24T09:16:20;27.70;99.90
18884;DHT22;9574;47.282;9.640;2022-07-24T09:18:50;27.90;99.90
18884;DHT22;9574;47.282;9.640;2022-07-24T09:21:19;27.90;99.90
18884;DHT22;9574;47.282;9.640;2022-07-24T09:23:46;27.90;99.90
18884;DHT22;9574;47.282;9.640;2022-07-24T09:26:14;28.00;99.90
18884;DHT22;9574;47.282;9.640;2022-07-24T09:28:49;28.10;99.90
18884;DHT22;9574;47.282;9.640;2022-07-24T09:31:17;28.20;99.90
18884;DHT22;9574;47.282;9.640;2022-07-24T09:33:44;28.20;99.90
18884;DHT22;9574;47.282;9.640;2022-07-24T09:36:12;28.20;99.90
18884;DHT22;9574;47.282;9.640;2022-07-24T09:38:46;28.30;99.90
18884;DHT22;9574;47.282;9.640;2022-07-24T09:41:19;28.30;99.90
18884;DHT22;9574;47.282;9.640;2022-07-24T09:43:56;28.50;99.90
18884;DHT22;9574;47.282;9.640;2022-07-24T09:46:24;28.50;99.90
18884;DHT22;9574;47.282;9.640;2022-07-24T09:48:53;28.50;99.90
18884;DHT22;9574;47.282;9.640;2022-07-24T09:51:22;28.50;99.90
18884;DHT22;9574;47.282;9.640;2022-07-24T09:53:55;28.60;99.90
18884;DHT22;9574;47.282;9.640;2022-07-24T09:56:22;28.80;99.90
18884;DHT22;9574;47.282;9.640;2022-07-24T09:58:51;28.70;99.90
18884;DHT22;9574;47.282;9.640;2022-07-24T10:01:20;28.80;99.90
18884;DHT22;9574;47.282;9.640;2022-07-24T10:03:49;28.80;99.90
18884;DHT22;9574;47.282;9.640;2022-07-24T10:06:18;29.00;99.90
18884;DHT22;9574;47.282;9.640;2022-07-24T10:08:49;29.10;99.90
18884;DHT22;9574;47.282;9.640;2022-07-24T10:11:18;29.10;99.90
18884;DHT22;9574;47.282;9.640;2022-07-24T10:13:46;29.10;99.90
18884;DHT22;9574;47.282;9.640;2022-07-24T10:16:26;29.20;99.90
18884;DHT22;9574;47.282;9.640;2022-07-24T10:18:55;29.20;99.90
18884;DHT22;9574;47.282;9.640;2022-07-24T10:21:24;29.20;99.90
18884;DHT22;9574;47.282;9.640;2022-07-24T10:27:02;29.40;99.90
18884;DHT22;9574;47.282;9.640;2022-07-24T10:29:29;29.50;99.90
18884;DHT22;9574;47.282;9.640;2022-07-24T10:32:00;29.40;99.90
18884;DHT22;9574;47.282;9.640;2022-07-24T10:34:32;29.50;99.90
18884;DHT22;9574;47.282;9.640;2022-07-24T10:37:06;29.50;99.90
18884;DHT22;9574;47.282;9.640;2022-07-24T10:39:53;29.60;99.90
18884;DHT22;9574;47.282;9.640;2022-07-24T10:42:22;29.70;99.90
18884;DHT22;9574;47.282;9.640;2022-07-24T10:45:14;29.80;99.90
18884;DHT22;9574;47.282;9.640;2022-07-24T10:47:42;29.90;99.90
18884;DHT22;9574;47.282;9.640;2022-07-24T10:50:10;29.90;99.90
18884;DHT22;9574;47.282;9.640;2022-07-24T10:52:37;29.90;99.90
18884;DHT22;9574;47.282;9.640;2022-07-24T10:55:35;29.90;99.90
18884;DHT22;9574;47.282;9.640;2022-07-24T10:58:12;29.80;99.90
18884;DHT22;9574;47.282;9.640;2022-07-24T11:00:44;29.80;99.90
18884;DHT22;9574;47.282;9.640;2022-07-24T11:03:19;29.80;99.90
18884;DHT22;9574;47.282;9.640;2022-07-24T11:06:03;29.90;99.90
18884;DHT22;9574;47.282;9.640;2022-07-24T11:08:32;30.00;99.90
18884;DHT22;9574;47.282;9.640;2022-07-24T11:11:14;29.90;99.90
18884;DHT22;9574;47.282;9.640;2022-07-24T11:13:48;30.00;99.90
18884;DHT22;9574;47.282;9.640;2022-07-24T11:16:27;30.10;99.90
18884;DHT22;9574;47.282;9.640;2022-07-24T11:19:28;30.20;99.90
18884;DHT22;9574;47.282;9.640;2022-07-24T11:22:06;30.20;99.90
18884;DHT22;9574;47.282;9.640;2022-07-24T11:24:34;30.40;99.90
18884;DHT22;9574;47.282;9.640;2022-07-24T11:27:06;30.30;99.90
18884;DHT22;9574;47.282;9.640;2022-07-24T11:29:35;30.30;99.90
18884;DHT22;9574;47.282;9.640;2022-07-24T11:32:05;30.30;99.90
18884;DHT22;9574;47.282;9.640;2022-07-24T11:34:34;30.30;99.90
18884;DHT22;9574;47.282;9.640;2022-07-24T11:37:02;30.30;99.90
18884;DHT22;9574;47.282;9.640;2022-07-24T11:39:32;30.30;99.90
18884;DHT22;9574;47.282;9.640;2022-07-24T11:42:01;30.30;99.90
18884;DHT22;9574;47.282;9.640;2022-07-24T11:44:31;30.40;99.90
18884;DHT22;9574;47.282;9.640;2022-07-24T11:47:05;30.50;99.90
18884;DHT22;9574;47.282;9.640;2022-07-24T11:49:39;30.60;99.90
18884;DHT22;9574;47.282;9.640;2022-07-24T11:52:07;30.60;99.90
18884;DHT22;9574;47.282;9.640;2022-07-24T11:54:34;30.60;99.90
18884;DHT22;9574;47.282;9.640;2022-07-24T11:57:01;30.70;99.90
18884;DHT22;9574;47.282;9.640;2022-07-24T11:59:30;30.70;99.90
18884;DHT22;9574;47.282;9.640;2022-07-24T12:02:06;30.70;99.90
18884;DHT22;9574;47.282;9.640;2022-07-24T12:04:34;30.80;99.90
18884;DHT22;9574;47.282;9.640;2022-07-24T12:07:05;30.80;99.90
18884;DHT22;9574;47.282;9.640;2022-07-24T12:09:32;30.90;99.90
18884;DHT22;9574;47.282;9.640;2022-07-24T12:12:21;30.90;99.90
18884;DHT22;9574;47.282;9.640;2022-07-24T12:14:51;30.90;99.90
18884;DHT22;9574;47.282;9.640;2022-07-24T12:17:19;30.90;99.90
18884;DHT22;9574;47.282;9.640;2022-07-24T12:19:54;30.90;99.90
18884;DHT22;9574;47.282;9.640;2022-07-24T12:22:23;30.90;99.90
18884;DHT22;9574;47.282;9.640;2022-07-24T12:24:51;30.80;99.90
18884;DHT22;9574;47.282;9.640;2022-07-24T12:27:39;30.80;99.90
18884;DHT22;9574;47.282;9.640;2022-07-24T12:30:18;30.90;99.90
18884;DHT22;9574;47.282;9.640;2022-07-24T12:32:58;31.00;99.90
18884;DHT22;9574;47.282;9.640;2022-07-24T12:35:27;31.00;99.90
18884;DHT22;9574;47.282;9.640;2022-07-24T12:37:55;31.00;99.90
18884;DHT22;9574;47.282;9.640;2022-07-24T12:40:30;31.00;99.90
18884;DHT22;9574;47.282;9.640;2022-07-24T12:43:05;31.00;99.90
18884;DHT22;9574;47.282;9.640;2022-07-24T12:45:35;31.10;99.90
18884;DHT22;9574;47.282;9.640;2022-07-24T12:48:18;31.20;99.90
18884;DHT22;9574;47.282;9.640;2022-07-24T12:50:59;31.20;99.90
18884;DHT22;9574;47.282;9.640;2022-07-24T12:53:27;31.30;99.90
18884;DHT22;9574;47.282;9.640;2022-07-24T12:56:12;31.40;99.90
18884;DHT22;9574;47.282;9.640;2022-07-24T12:59:00;31.50;99.90
18884;DHT22;9574;47.282;9.640;2022-07-24T13:01:44;31.60;99.90
18884;DHT22;9574;47.282;9.640;2022-07-24T13:04:12;31.50;99.90
18884;DHT22;9574;47.282;9.640;2022-07-24T13:06:43;31.50;99.90
18884;DHT22;9574;47.282;9.640;2022-07-24T13:09:12;31.50;99.90
18884;DHT22;9574;47.282;9.640;2022-07-24T13:11:41;31.60;99.90
18884;DHT22;9574;47.282;9.640;2022-07-24T13:14:09;31.50;99.90
18884;DHT22;9574;47.282;9.640;2022-07-24T13:16:38;31.70;99.90
18884;DHT22;9574;47.282;9.640;2022-07-24T13:19:06;31.80;99.90
18884;DHT22;9574;47.282;9.640;2022-07-24T13:21:35;31.90;99.90
18884;DHT22;9574;47.282;9.640;2022-07-24T13:24:03;31.70;99.90
18884;DHT22;9574;47.282;9.640;2022-07-24T13:26:30;31.80;99.90
18884;DHT22;9574;47.282;9.640;2022-07-24T13:28:57;31.90;99.90
18884;DHT22;9574;47.282;9.640;2022-07-24T13:31:24;31.90;99.90
18884;DHT22;9574;47.282;9.640;2022-07-24T13:33:51;31.90;99.90
18884;DHT22;9574;47.282;9.640;2022-07-24T13:36:19;31.80;99.90
18884;DHT22;9574;47.282;9.640;2022-07-24T13:38:47;31.80;99.90
18884;DHT22;9574;47.282;9.640;2022-07-24T13:41:15;31.80;99.90
18884;DHT22;9574;47.282;9.640;2022-07-24T13:43:44;31.70;99.90
18884;DHT22;9574;47.282;9.640;2022-07-24T13:46:12;31.80;99.90
18884;DHT22;9574;47.282;9.640;2022-07-24T13:48:39;31.90;99.90
18884;DHT22;9574;47.282;9.640;2022-07-24T13:51:06;32.10;99.90
18884;DHT22;9574;47.282;9.640;2022-07-24T13:53:33;32.20;99.90
18884;DHT22;9574;47.282;9.640;2022-07-24T13:56:03;32.30;99.90
18884;DHT22;9574;47.282;9.640;2022-07-24T13:58:31;32.50;99.90
18884;DHT22;9574;47.282;9.640;2022-07-24T14:00:59;32.40;99.90
18884;DHT22;9574;47.282;9.640;2022-07-24T14:03:26;32.40;99.90
18884;DHT22;9574;47.282;9.640;2022-07-24T14:05:53;32.40;99.90
18884;DHT22;9574;47.282;9.640;2022-07-24T14:08:20;32.30;99.90
18884;DHT22;9574;47.282;9.640;2022-07-24T14:10:47;32.40;99.90
18884;DHT22;9574;47.282;9.640;2022-07-24T14:13:15;32.40;99.90
18884;DHT22;9574;47.282;9.640;2022-07-24T14:15:42;32.40;99.90
18884;DHT22;9574;47.282;9.640;2022-07-24T14:18:09;32.30;99.90
18884;DHT22;9574;47.282;9.640;2022-07-24T14:20:36;32.20;99.90
18884;DHT22;9574;47.282;9.640;2022-07-24T14:23:03;32.20;99.90
18884;DHT22;9574;47.282;9.640;2022-07-24T14:25:30;32.20;99.90
18884;DHT22;9574;47.282;9.640;2022-07-24T14:27:57;32.20;99.90
18884;DHT22;9574;47.282;9.640;2022-07-24T14:30:26;32.20;99.90
18884;DHT22;9574;47.282;9.640;2022-07-24T14:32:52;32.30;99.90
18884;DHT22;9574;47.282;9.640;2022-07-24T14:35:20;32.30;99.90
18884;DHT22;9574;47.282;9.640;2022-07-24T14:37:47;32.30;99.90
18884;DHT22;9574;47.282;9.640;2022-07-24T14:40:14;32.30;99.90
18884;DHT22;9574;47.282;9.640;2022-07-24T14:42:41;32.30;99.90
18884;DHT22;9574;47.282;9.640;2022-07-24T14:45:09;32.30;99.90
18884;DHT22;9574;47.282;9.640;2022-07-24T14:47:37;32.20;99.90
18884;DHT22;9574;47.282;9.640;2022-07-24T14:50:06;32.20;99.90
18884;DHT22;9574;47.282;9.640;2022-07-24T14:52:33;32.30;99.90
18884;DHT22;9574;47.282;9.640;2022-07-24T14:55:01;32.30;99.90
18884;DHT22;9574;47.282;9.640;2022-07-24T14:57:28;32.30;99.60
18884;DHT22;9574;47.282;9.640;2022-07-24T14:59:55;32.30;99.00
18884;DHT22;9574;47.282;9.640;2022-07-24T15:02:22;32.20;99.10
18884;DHT22;9574;47.282;9.640;2022-07-24T15:04:50;32.00;99.60
18884;DHT22;9574;47.282;9.640;2022-07-24T15:07:18;32.00;99.60
18884;DHT22;9574;47.282;9.640;2022-07-24T15:09:45;32.00;99.20
18884;DHT22;9574;47.282;9.640;2022-07-24T15:12:11;32.10;98.90
18884;DHT22;9574;47.282;9.640;2022-07-24T15:14:38;32.20;98.90
18884;DHT22;9574;47.282;9.640;2022-07-24T15:17:05;32.20;98.20
18884;DHT22;9574;47.282;9.640;2022-07-24T15:19:32;32.20;97.80
18884;DHT22;9574;47.282;9.640;2022-07-24T15:22:01;32.20;97.00
18884;DHT22;9574;47.282;9.640;2022-07-24T15:24:28;32.20;96.90
18884;DHT22;9574;47.282;9.640;2022-07-24T15:26:55;32.20;97.10
18884;DHT22;9574;47.282;9.640;2022-07-24T15:29:21;32.00;96.80
18884;DHT22;9574;47.282;9.640;2022-07-24T15:31:48;32.10;97.20
18884;DHT22;9574;47.282;9.640;2022-07-24T15:34:15;32.00;96.30
18884;DHT22;9574;47.282;9.640;2022-07-24T15:36:42;32.00;96.60
18884;DHT22;9574;47.282;9.640;2022-07-24T15:39:11;32.00;96.40
18884;DHT22;9574;47.282;9.640;2022-07-24T15:41:38;32.10;95.90
18884;DHT22;9574;47.282;9.640;2022-07-24T15:44:06;32.00;95.90
18884;DHT22;9574;47.282;9.640;2022-07-24T15:46:34;32.00;96.00
18884;DHT22;9574;47.282;9.640;2022-07-24T15:49:03;31.90;95.50
18884;DHT22;9574;47.282;9.640;2022-07-24T15:51:31;31.90;95.90
18884;DHT22;9574;47.282;9.640;2022-07-24T15:53:58;31.90;95.60
18884;DHT22;9574;47.282;9.640;2022-07-24T15:56:27;31.90;95.70
18884;DHT22;9574;47.282;9.640;2022-07-24T15:58:54;31.90;95.50